This is the latest recevied weather packets stored in our database for station/object LRIA. If no packets are shown the sender has not sent any weather packets the latest 10 day(s).
| Time | Temp. | Humidity | Pressure | Rain* | Wind** | Luminosity | Snow |
|---|---|---|---|---|---|---|---|
| 1778023103 | 12.22° C | 67% | 1013 hPa | - | - | - | - |
| 1778022204 | 12.22° C | 67% | 1013 hPa | - | - | - | - |
| 1778021303 | 12.78° C | 63% | 1013 hPa | - | - | - | - |
| 1778020403 | 12.78° C | 63% | 1013 hPa | - | - | - | - |
| 1778019500 | 13.89° C | 59% | 1013 hPa | - | - | - | - |
| 1778018604 | 13.89° C | 59% | 1013 hPa | - | - | - | - |
| 1778017704 | 13.89° C | 59% | 1013 hPa | - | - | - | - |
| 1778016803 | 13.89° C | 59% | 1013 hPa | - | - | - | - |
| 1778015903 | 16.11° C | 52% | 1013 hPa | - | - | - | - |
| 1778015004 | 16.11° C | 52% | 1013 hPa | - | - | - | - |
| 1778014106 | 17.78° C | 43% | 1013 hPa | - | - | - | - |
| 1778013203 | 17.78° C | 43% | 1013 hPa | - | - | - | - |
| 1778012334 | 18.89° C | 40% | 1013 hPa | - | - | - | - |
| 1778011404 | 18.89° C | 40% | 1013 hPa | - | - | - | - |
| 1778010503 | 20° C | 38% | 1012 hPa | - | - | - | - |
| 1778009603 | 20° C | 38% | 1012 hPa | - | - | - | - |
| 1778008703 | 20° C | 38% | 1012 hPa | - | - | - | - |
| 1778007803 | 20° C | 38% | 1012 hPa | - | - | - | - |
| 1778006904 | 21.11° C | 35% | 1012 hPa | - | - | - | - |
| 1778006004 | 21.11° C | 35% | 1012 hPa | - | - | - | - |
| 1778005104 | 22.22° C | 33% | 1012 hPa | - | - | - | - |
| 1778004203 | 22.22° C | 33% | 1012 hPa | - | - | - | - |
| 1778003301 | 22.22° C | 31% | 1012 hPa | - | - | - | - |
| 1778002403 | 22.22° C | 31% | 1012 hPa | - | - | - | - |
| 1778001503 | 23.89° C | 27% | 1012 hPa | - | - | - | - |
* Rain since midnight (hover to see other rain measurements)
** Current wind speed in m/s (hover to see current wind gust speed)